Terminal Aerodrome Forecast
Issued by NWS Grand Forks, ND

Home | Current Version | Previous Version | Graphics & Text | Print | Product List | Glossary On
Versions: 1 2 3 4 5 6 7 8 9 10 11 12 13 14 15 16 17 18 19 20 21 22
113
FTUS43 KFGF 152155 AAA
TAFFAR
TAF AMD
KFAR 152155Z 1522/1618 15007KT P6SM BKN020
      TEMPO 1522/1602 5SM -SN
     FM160400 14006KT P6SM OVC025
     FM160900 14004KT P6SM OVC015
     FM161000 14004KT P6SM OVC020
     FM161600 24004KT P6SM BKN025=

USA.gov is the U.S. government's official web portal to all federal, state and local government web resources and services.